Time;durP1;ratioP1;P1;durP2;ratioP2;P2;SDS_P1;SDS_P2;PMS_P1;PMS_P2;Temp;Humidity;BMP_temperature;BMP_pressure;BME280_temperature;BME280_humidity;BME280_pressure;Samples;Min_cycle;Max_cycle;Signal;HPM_P1;HPM_P2
2024/04/18 00:01:58;;;;;;;6.82;5.35;;;4.20;99.90;;;;;;469510;252;27531;-72
2024/04/18 00:03:59;;;;;;;7.12;5.00;;;4.10;99.90;;;;;;469534;252;27884;-73
2024/04/18 00:06:00;;;;;;;5.97;5.05;;;4.20;99.90;;;;;;469543;252;27514;-72
2024/04/18 00:08:02;;;;;;;6.60;5.10;;;4.20;99.90;;;;;;469545;252;27491;-72
2024/04/18 00:10:03;;;;;;;8.95;5.53;;;4.20;99.90;;;;;;469562;252;28006;-72
2024/04/18 00:12:04;;;;;;;5.65;4.95;;;4.20;99.90;;;;;;469554;252;27989;-72
2024/04/18 00:14:05;;;;;;;5.45;4.80;;;4.10;99.90;;;;;;469569;252;27455;-73
2024/04/18 00:16:07;;;;;;;5.40;4.60;;;4.10;99.90;;;;;;469554;252;27424;-72
2024/04/18 00:18:08;;;;;;;4.97;4.47;;;4.00;99.90;;;;;;469563;252;27459;-72
2024/04/18 00:20:09;;;;;;;5.12;4.57;;;4.00;99.90;;;;;;469536;252;27491;-72
2024/04/18 00:22:11;;;;;;;6.65;5.30;;;4.00;99.90;;;;;;469545;252;27522;-72
2024/04/18 00:24:12;;;;;;;5.15;4.65;;;4.00;99.90;;;;;;469544;252;27564;-72
2024/04/18 00:26:13;;;;;;;6.05;5.45;;;3.90;99.90;;;;;;469562;252;27419;-71
2024/04/18 00:28:14;;;;;;;6.28;4.80;;;3.90;99.90;;;;;;469527;252;27471;-72
2024/04/18 00:30:16;;;;;;;6.78;5.45;;;4.00;99.90;;;;;;469500;252;28165;-73
2024/04/18 00:32:17;;;;;;;6.32;5.72;;;4.00;99.90;;;;;;469536;252;27882;-71
2024/04/18 00:34:18;;;;;;;8.38;5.90;;;4.10;99.90;;;;;;469544;252;27941;-72
2024/04/18 00:36:19;;;;;;;8.85;6.70;;;4.10;99.90;;;;;;469538;252;27419;-72
2024/04/18 00:38:21;;;;;;;10.15;7.50;;;4.10;99.90;;;;;;469521;252;27471;-71
2024/04/18 00:40:22;;;;;;;10.20;7.72;;;4.10;99.90;;;;;;469557;252;27542;-72
2024/04/18 00:42:23;;;;;;;8.20;7.00;;;4.10;99.90;;;;;;469547;252;27510;-72
2024/04/18 00:44:24;;;;;;;10.30;7.97;;;4.20;99.90;;;;;;469524;252;27539;-72
2024/04/18 00:46:27;;;;;;;9.52;7.65;;;4.10;99.90;;;;;;469525;252;27478;-71
2024/04/18 00:48:29;;;;;;;9.73;6.93;;;4.10;99.90;;;;;;469465;253;27980;-71
2024/04/18 00:50:28;;;;;;;9.02;7.03;;;4.20;99.90;;;;;;469463;253;27945;-71
2024/04/18 00:52:29;;;;;;;8.43;7.12;;;4.20;99.90;;;;;;469528;252;27408;-72
2024/04/18 00:54:31;;;;;;;10.10;7.37;;;4.20;99.90;;;;;;469533;252;27454;-72
2024/04/18 00:56:32;;;;;;;7.95;6.95;;;4.10;99.90;;;;;;469527;252;27489;-71
2024/04/18 00:58:33;;;;;;;8.70;6.95;;;4.10;99.90;;;;;;469546;252;27419;-72
2024/04/18 01:00:34;;;;;;;8.90;6.85;;;4.10;99.90;;;;;;469543;252;27499;-72
2024/04/18 01:02:36;;;;;;;9.30;7.45;;;4.00;99.90;;;;;;469452;252;27470;-72
2024/04/18 01:04:37;;;;;;;8.55;6.95;;;4.00;99.90;;;;;;469383;252;27502;-71
2024/04/18 01:06:39;;;;;;;10.38;7.75;;;4.00;99.90;;;;;;469513;252;27974;-71
2024/04/18 01:08:39;;;;;;;10.30;7.03;;;3.90;99.90;;;;;;469439;252;29085;-72
2024/04/18 01:10:41;;;;;;;10.00;7.12;;;3.90;99.90;;;;;;469494;252;27546;-72
2024/04/18 01:12:42;;;;;;;7.65;6.43;;;4.00;99.90;;;;;;469496;252;27438;-72
2024/04/18 01:14:43;;;;;;;8.45;6.90;;;4.00;99.90;;;;;;469497;252;27454;-71
2024/04/18 01:16:44;;;;;;;9.90;6.97;;;4.00;99.90;;;;;;469524;252;27562;-72
2024/04/18 01:18:46;;;;;;;9.48;6.95;;;4.00;99.90;;;;;;469469;252;27458;-71
2024/04/18 01:20:47;;;;;;;8.07;6.87;;;4.00;99.90;;;;;;469501;252;27504;-72
2024/04/18 01:22:48;;;;;;;7.55;6.18;;;4.00;99.90;;;;;;469535;252;27475;-71
2024/04/18 01:24:49;;;;;;;8.57;6.70;;;3.90;99.90;;;;;;469556;252;27970;-72
2024/04/18 01:26:51;;;;;;;8.85;6.30;;;4.00;99.90;;;;;;469543;252;28004;-73
2024/04/18 01:28:52;;;;;;;7.62;6.22;;;3.90;99.90;;;;;;469543;252;27430;-71
2024/04/18 01:30:53;;;;;;;8.60;7.00;;;3.90;99.90;;;;;;469542;252;27545;-72
2024/04/18 01:32:54;;;;;;;6.70;5.43;;;3.90;99.90;;;;;;469540;252;27455;-71
2024/04/18 01:34:56;;;;;;;7.40;6.05;;;4.00;99.90;;;;;;469550;252;27534;-71
2024/04/18 01:36:57;;;;;;;7.35;5.50;;;3.90;99.90;;;;;;469561;252;27591;-72
2024/04/18 01:38:58;;;;;;;6.82;6.12;;;3.90;99.90;;;;;;469538;252;27422;-72
2024/04/18 01:40:59;;;;;;;5.95;5.35;;;3.90;99.90;;;;;;469494;252;27471;-71
2024/04/18 01:43:01;;;;;;;8.20;6.03;;;3.90;99.90;;;;;;469543;252;27466;-73
2024/04/18 01:45:02;;;;;;;6.57;5.47;;;3.90;99.90;;;;;;469516;252;27883;-72
2024/04/18 01:47:03;;;;;;;7.95;5.62;;;3.80;99.90;;;;;;469523;253;28040;-72
2024/04/18 01:49:04;;;;;;;7.62;5.80;;;3.90;99.90;;;;;;469517;252;27436;-71
2024/04/18 01:51:06;;;;;;;7.95;5.60;;;3.80;99.90;;;;;;469513;252;27545;-71
2024/04/18 01:53:07;;;;;;;6.05;5.45;;;3.80;99.90;;;;;;469550;252;27467;-72
2024/04/18 01:55:08;;;;;;;6.35;5.35;;;3.90;99.90;;;;;;469525;252;27419;-72
2024/04/18 01:57:09;;;;;;;7.22;6.15;;;3.90;99.90;;;;;;469321;252;27465;-72
2024/04/18 01:59:11;;;;;;;6.40;5.78;;;3.90;99.90;;;;;;469517;252;27502;-71
2024/04/18 02:01:12;;;;;;;5.95;5.32;;;3.80;99.90;;;;;;469504;252;27419;-72
2024/04/18 02:03:13;;;;;;;7.20;6.03;;;3.90;99.90;;;;;;469484;252;27562;-72
2024/04/18 02:05:14;;;;;;;7.37;5.60;;;3.80;99.90;;;;;;469514;252;27983;-71
2024/04/18 02:07:16;;;;;;;7.18;5.50;;;3.80;99.90;;;;;;469489;252;27991;-72
2024/04/18 02:09:18;;;;;;;6.47;5.70;;;3.80;99.90;;;;;;469533;252;28084;-73
2024/04/18 02:11:18;;;;;;;5.55;5.05;;;3.80;99.90;;;;;;469418;253;27416;-71
2024/04/18 02:13:19;;;;;;;5.85;5.25;;;3.90;99.90;;;;;;469492;252;27526;-72
2024/04/18 02:15:21;;;;;;;6.72;5.65;;;3.90;99.90;;;;;;469502;252;27443;-71
2024/04/18 02:17:22;;;;;;;5.37;4.87;;;3.90;99.90;;;;;;469509;252;27538;-72
2024/04/18 02:19:23;;;;;;;6.20;5.70;;;3.90;99.90;;;;;;469447;252;27490;-73
2024/04/18 02:21:25;;;;;;;5.00;4.50;;;3.90;99.90;;;;;;469556;252;27506;-71
2024/04/18 02:23:26;;;;;;;5.45;4.95;;;3.90;99.90;;;;;;469551;252;27561;-72
2024/04/18 02:25:27;;;;;;;5.90;5.05;;;3.90;99.90;;;;;;469567;252;28711;-70
2024/04/18 02:27:28;;;;;;;5.90;5.20;;;3.90;99.90;;;;;;469553;252;27936;-71
2024/04/18 02:29:30;;;;;;;5.45;4.95;;;3.90;99.90;;;;;;469574;252;27949;-73
2024/04/18 02:31:31;;;;;;;6.12;4.22;;;4.00;99.90;;;;;;469571;252;27519;-71
2024/04/18 02:33:32;;;;;;;9.57;4.72;;;4.00;99.90;;;;;;469547;252;27453;-72
2024/04/18 02:35:33;;;;;;;4.80;4.40;;;4.00;99.90;;;;;;469529;252;27435;-71
2024/04/18 02:37:35;;;;;;;6.07;4.47;;;3.90;99.90;;;;;;469568;252;27502;-71
2024/04/18 02:39:36;;;;;;;5.10;4.57;;;3.90;99.90;;;;;;469486;252;27558;-71
2024/04/18 02:41:37;;;;;;;5.15;4.65;;;3.90;99.90;;;;;;469486;252;27426;-71
2024/04/18 02:43:38;;;;;;;5.95;5.35;;;3.90;99.90;;;;;;469482;252;27550;-71
2024/04/18 02:45:40;;;;;;;5.10;4.60;;;3.90;99.90;;;;;;469546;252;27472;-72
2024/04/18 02:47:41;;;;;;;6.70;5.18;;;3.80;99.90;;;;;;469551;252;27965;-71
2024/04/18 02:49:42;;;;;;;5.72;5.12;;;3.90;99.90;;;;;;469552;252;27928;-72
2024/04/18 02:51:43;;;;;;;5.85;5.25;;;3.80;99.90;;;;;;469535;252;28132;-72
2024/04/18 02:53:45;;;;;;;5.25;4.75;;;3.80;99.90;;;;;;469557;252;27491;-71
2024/04/18 02:55:46;;;;;;;5.78;5.15;;;3.80;99.90;;;;;;469558;252;27493;-72
2024/04/18 02:57:47;;;;;;;6.40;5.45;;;3.80;99.90;;;;;;469541;252;27422;-72
2024/04/18 02:59:48;;;;;;;7.00;5.62;;;3.80;99.90;;;;;;469538;252;27482;-72
2024/04/18 03:01:50;;;;;;;7.35;5.30;;;3.80;99.90;;;;;;469560;252;28293;-72
2024/04/18 03:03:51;;;;;;;5.28;4.43;;;3.80;99.90;;;;;;469587;252;27427;-71
2024/04/18 03:05:52;;;;;;;5.35;4.85;;;3.80;99.90;;;;;;469589;252;27565;-72
2024/04/18 03:07:53;;;;;;;4.90;4.40;;;3.90;99.90;;;;;;469596;252;27942;-72
2024/04/18 03:09:55;;;;;;;5.20;4.72;;;3.90;99.90;;;;;;469573;252;27934;-72
2024/04/18 03:11:56;;;;;;;5.80;5.30;;;3.80;99.90;;;;;;469582;252;28055;-72
2024/04/18 03:13:57;;;;;;;6.93;5.70;;;3.80;99.90;;;;;;469586;252;27867;-72
2024/04/18 03:15:58;;;;;;;5.68;4.90;;;3.80;99.90;;;;;;469563;252;27542;-72
2024/04/18 03:18:00;;;;;;;4.85;4.40;;;3.80;99.90;;;;;;469571;252;27423;-72
2024/04/18 03:20:01;;;;;;;5.15;4.65;;;3.70;99.90;;;;;;469569;252;27502;-72
2024/04/18 03:22:02;;;;;;;5.87;5.22;;;3.60;99.90;;;;;;469576;252;27544;-72
2024/04/18 03:24:03;;;;;;;7.40;5.20;;;3.70;99.90;;;;;;469580;252;27425;-72
2024/04/18 03:26:05;;;;;;;5.87;5.28;;;3.60;99.90;;;;;;469565;252;27451;-72
2024/04/18 03:28:06;;;;;;;6.43;4.72;;;3.60;99.90;;;;;;469542;252;27454;-71
2024/04/18 03:30:07;;;;;;;5.50;4.93;;;3.60;99.90;;;;;;469557;252;27423;-72
2024/04/18 03:32:08;;;;;;;5.95;5.20;;;3.60;99.90;;;;;;469566;252;28002;-72
2024/04/18 03:34:10;;;;;;;6.57;5.97;;;3.70;99.90;;;;;;469524;252;27924;-72
2024/04/18 03:36:11;;;;;;;5.95;5.35;;;3.60;99.90;;;;;;469522;252;28764;-72
2024/04/18 03:38:12;;;;;;;5.80;5.20;;;3.50;99.90;;;;;;469545;252;27451;-72
2024/04/18 03:40:13;;;;;;;6.05;5.35;;;3.50;99.90;;;;;;469542;252;27427;-72
2024/04/18 03:42:15;;;;;;;6.00;5.40;;;3.50;99.90;;;;;;469526;252;27529;-70
2024/04/18 03:44:16;;;;;;;5.95;5.35;;;3.50;99.90;;;;;;469519;252;27454;-71
2024/04/18 03:46:19;;;;;;;6.22;5.62;;;3.50;99.90;;;;;;469528;252;27546;-71
2024/04/18 03:48:18;;;;;;;5.95;5.45;;;3.50;99.90;;;;;;469446;253;27492;-72
2024/04/18 03:50:20;;;;;;;5.93;5.32;;;3.50;99.90;;;;;;469557;252;27486;-72
2024/04/18 03:52:21;;;;;;;6.75;5.93;;;3.50;99.90;;;;;;469516;252;27544;-72
2024/04/18 03:54:22;;;;;;;5.45;4.95;;;3.50;99.90;;;;;;469542;252;27427;-72
2024/04/18 03:56:23;;;;;;;6.10;5.50;;;3.40;99.90;;;;;;469536;252;27867;-72
2024/04/18 03:58:25;;;;;;;6.00;5.43;;;3.50;99.90;;;;;;469563;252;28140;-72
2024/04/18 04:00:26;;;;;;;5.35;4.85;;;3.60;99.90;;;;;;469513;252;27952;-72
2024/04/18 04:02:27;;;;;;;5.70;5.10;;;3.60;99.90;;;;;;469524;252;27466;-71
2024/04/18 04:04:28;;;;;;;7.20;6.20;;;3.70;99.90;;;;;;469549;252;27486;-72
2024/04/18 04:06:30;;;;;;;6.80;5.60;;;3.60;99.90;;;;;;469561;252;27419;-72
2024/04/18 04:08:31;;;;;;;5.45;4.95;;;3.60;99.90;;;;;;469549;252;27537;-73
2024/04/18 04:10:32;;;;;;;6.32;5.72;;;3.60;99.90;;;;;;469549;252;27423;-72
2024/04/18 04:12:36;;;;;;;6.82;6.05;;;3.60;99.90;;;;;;469550;252;27458;-72
2024/04/18 04:14:35;;;;;;;7.37;6.40;;;3.50;99.90;;;;;;469389;253;27888;-72
2024/04/18 04:16:36;;;;;;;6.72;6.03;;;3.40;99.90;;;;;;469523;252;27466;-71
2024/04/18 04:18:37;;;;;;;6.50;5.90;;;3.40;99.90;;;;;;469508;252;27470;-72
2024/04/18 04:20:38;;;;;;;6.00;5.35;;;3.40;99.90;;;;;;469448;252;27957;-71
2024/04/18 04:22:40;;;;;;;5.43;4.93;;;3.40;99.90;;;;;;469491;252;28017;-71
2024/04/18 04:24:41;;;;;;;5.80;5.18;;;3.40;99.90;;;;;;469557;251;27458;-73
2024/04/18 04:26:42;;;;;;;5.05;4.53;;;3.50;99.90;;;;;;469509;252;27514;-71
2024/04/18 04:28:43;;;;;;;5.22;4.82;;;3.40;99.90;;;;;;469512;252;27451;-72
2024/04/18 04:30:45;;;;;;;5.20;4.70;;;3.40;99.90;;;;;;469521;252;27411;-72
2024/04/18 04:32:46;;;;;;;5.30;4.80;;;3.40;99.90;;;;;;469531;252;27507;-71
2024/04/18 04:34:47;;;;;;;5.43;4.95;;;3.30;99.90;;;;;;469521;252;27491;-72
2024/04/18 04:36:48;;;;;;;5.07;4.57;;;3.20;99.90;;;;;;469554;252;27415;-72
2024/04/18 04:38:50;;;;;;;4.55;4.15;;;3.20;99.90;;;;;;469549;252;27545;-72
2024/04/18 04:40:51;;;;;;;3.90;3.60;;;3.20;99.90;;;;;;469533;252;28105;-73
2024/04/18 04:42:52;;;;;;;3.90;3.60;;;3.20;99.90;;;;;;469502;252;27885;-72
2024/04/18 04:44:53;;;;;;;4.28;3.87;;;3.30;99.90;;;;;;469498;252;27934;-71
2024/04/18 04:46:55;;;;;;;4.97;4.47;;;3.20;99.90;;;;;;469527;252;27411;-72
2024/04/18 04:48:56;;;;;;;4.05;3.75;;;3.20;99.90;;;;;;469498;252;27473;-72
2024/04/18 04:50:58;;;;;;;4.60;4.20;;;3.20;99.90;;;;;;469533;252;27464;-74
2024/04/18 04:52:58;;;;;;;4.97;4.53;;;3.20;99.90;;;;;;469513;252;27419;-71
2024/04/18 04:55:00;;;;;;;4.87;4.47;;;3.20;99.90;;;;;;469548;252;27455;-72
2024/04/18 04:57:01;;;;;;;5.00;4.50;;;3.20;99.90;;;;;;469558;252;27447;-71
2024/04/18 04:59:02;;;;;;;7.70;5.25;;;3.20;99.90;;;;;;469516;252;27450;-72
2024/04/18 05:01:04;;;;;;;8.00;4.75;;;3.20;99.90;;;;;;469532;252;27456;-72
2024/04/18 05:03:05;;;;;;;4.65;4.25;;;3.20;99.90;;;;;;469551;252;27415;-72
2024/04/18 05:05:08;;;;;;;5.20;4.80;;;3.10;99.90;;;;;;469537;252;27934;-72
2024/04/18 05:07:07;;;;;;;5.22;4.32;;;3.00;99.90;;;;;;469427;253;28785;-72
2024/04/18 05:09:08;;;;;;;5.03;4.60;;;3.10;99.90;;;;;;469548;252;27977;-71
2024/04/18 05:11:10;;;;;;;5.40;4.90;;;3.10;99.90;;;;;;469507;252;29028;-72
2024/04/18 05:13:11;;;;;;;4.60;4.20;;;3.10;99.90;;;;;;469521;252;27411;-72
2024/04/18 05:15:12;;;;;;;5.80;5.20;;;3.10;99.90;;;;;;469496;252;27486;-71
2024/04/18 05:17:15;;;;;;;5.10;4.65;;;3.20;99.90;;;;;;469529;252;27447;-72
2024/04/18 05:19:15;;;;;;;10.45;5.10;;;3.20;99.90;;;;;;469443;253;27502;-71
2024/04/18 05:21:17;;;;;;;4.97;4.57;;;3.20;99.90;;;;;;469539;252;27593;-72
2024/04/18 05:23:17;;;;;;;5.40;4.90;;;3.20;99.90;;;;;;469455;252;27506;-71
2024/04/18 05:25:18;;;;;;;5.12;4.62;;;3.20;99.90;;;;;;469556;252;27463;-71
2024/04/18 05:27:20;;;;;;;4.90;4.50;;;3.30;99.90;;;;;;469515;252;27485;-72
2024/04/18 05:31:41;;;;;;;5.65;5.15;;;3.30;99.90;;;;;;469538;253;27474;-72
2024/04/18 05:33:42;;;;;;;4.70;4.30;;;3.30;99.90;;;;;;469484;252;27547;-72
2024/04/18 05:35:43;;;;;;;5.18;4.68;;;3.40;99.90;;;;;;469532;252;27423;-72
2024/04/18 05:37:44;;;;;;;4.90;4.40;;;3.40;99.90;;;;;;469557;252;27450;-72
2024/04/18 05:39:45;;;;;;;5.20;4.65;;;3.40;99.90;;;;;;469573;252;27521;-71
2024/04/18 05:41:47;;;;;;;6.12;5.43;;;3.40;99.90;;;;;;469548;252;27474;-72
2024/04/18 05:43:48;;;;;;;5.40;4.60;;;3.30;99.90;;;;;;469553;252;27443;-71
2024/04/18 05:45:49;;;;;;;5.12;4.72;;;3.30;99.90;;;;;;469567;252;27423;-72
2024/04/18 05:47:50;;;;;;;6.62;4.93;;;3.30;99.90;;;;;;469572;252;27459;-72
2024/04/18 05:49:52;;;;;;;5.55;4.65;;;3.30;99.90;;;;;;469577;252;27420;-71
2024/04/18 05:51:53;;;;;;;4.82;4.43;;;3.30;99.90;;;;;;469550;252;27991;-71
2024/04/18 05:53:54;;;;;;;5.40;4.90;;;3.30;99.90;;;;;;469559;252;28010;-72
2024/04/18 05:55:55;;;;;;;5.65;4.82;;;3.30;99.90;;;;;;469561;252;27983;-72
2024/04/18 05:57:57;;;;;;;9.68;4.60;;;3.40;99.90;;;;;;469532;252;27530;-72
2024/04/18 05:59:58;;;;;;;5.22;4.78;;;3.50;99.90;;;;;;469538;252;27483;-72
2024/04/18 06:01:59;;;;;;;5.20;4.70;;;3.50;99.90;;;;;;469545;252;27458;-72
2024/04/18 06:04:00;;;;;;;4.45;4.05;;;3.50;99.90;;;;;;469540;252;27550;-72
2024/04/18 06:06:02;;;;;;;5.60;4.70;;;3.60;99.90;;;;;;469544;252;27442;-71
2024/04/18 06:08:03;;;;;;;4.87;4.47;;;3.60;99.90;;;;;;469517;252;27569;-72
2024/04/18 06:10:04;;;;;;;5.00;4.60;;;3.50;99.90;;;;;;469519;252;27428;-72
2024/04/18 06:12:05;;;;;;;4.90;4.50;;;3.50;99.90;;;;;;469516;252;27415;-71
2024/04/18 06:14:07;;;;;;;5.20;4.70;;;3.50;99.90;;;;;;469509;252;27471;-72
2024/04/18 06:16:10;;;;;;;5.68;5.18;;;3.60;99.90;;;;;;469493;252;27931;-71
2024/04/18 06:18:09;;;;;;;5.55;4.57;;;3.60;99.90;;;;;;469429;252;27917;-72
2024/04/18 06:20:10;;;;;;;5.32;4.80;;;3.70;99.90;;;;;;469534;252;28121;-71
2024/04/18 06:22:12;;;;;;;4.75;4.22;;;3.60;99.90;;;;;;469511;252;27546;-72
2024/04/18 06:24:13;;;;;;;5.55;5.05;;;3.60;99.90;;;;;;469544;252;27470;-72
2024/04/18 06:26:15;;;;;;;4.70;4.20;;;3.60;99.90;;;;;;469553;252;27526;-72
2024/04/18 06:28:15;;;;;;;5.00;4.50;;;3.70;99.90;;;;;;469461;253;27538;-71
2024/04/18 06:30:17;;;;;;;6.35;5.70;;;3.70;99.90;;;;;;469558;252;27804;-72
2024/04/18 06:32:18;;;;;;;7.70;6.37;;;3.80;99.90;;;;;;469530;252;27475;-72
2024/04/18 06:34:19;;;;;;;6.03;5.32;;;3.60;99.90;;;;;;469542;252;27462;-71
2024/04/18 06:36:20;;;;;;;6.10;5.50;;;3.70;99.90;;;;;;469554;252;27427;-71
2024/04/18 06:38:22;;;;;;;10.00;6.15;;;3.80;99.90;;;;;;469546;252;28017;-71
2024/04/18 06:40:23;;;;;;;7.10;6.35;;;3.80;99.90;;;;;;469552;252;27934;-72
2024/04/18 06:42:24;;;;;;;6.12;5.53;;;3.80;99.90;;;;;;469330;250;27901;-71
2024/04/18 06:44:25;;;;;;;5.80;5.28;;;3.70;99.90;;;;;;469535;252;27458;-71
2024/04/18 06:46:27;;;;;;;5.03;4.53;;;3.80;99.90;;;;;;469542;252;27479;-72
2024/04/18 06:48:28;;;;;;;6.07;5.20;;;3.80;99.90;;;;;;469560;252;27450;-71
2024/04/18 06:50:29;;;;;;;5.87;5.28;;;3.70;99.90;;;;;;469553;252;27451;-72
2024/04/18 06:52:30;;;;;;;5.50;5.00;;;3.70;99.90;;;;;;469509;252;27436;-72
2024/04/18 06:54:32;;;;;;;5.97;5.10;;;3.70;99.90;;;;;;469537;252;27471;-72
2024/04/18 06:56:33;;;;;;;5.97;5.22;;;3.60;99.90;;;;;;469525;252;27526;-72
2024/04/18 06:58:34;;;;;;;6.37;5.72;;;3.80;99.90;;;;;;469533;252;27554;-72
2024/04/18 07:00:37;;;;;;;6.80;6.05;;;3.80;99.90;;;;;;469537;252;27954;-71
2024/04/18 07:02:37;;;;;;;6.85;5.60;;;3.90;99.90;;;;;;469448;252;27937;-72
2024/04/18 07:04:38;;;;;;;7.47;6.47;;;3.80;99.90;;;;;;469494;252;27992;-72
2024/04/18 07:06:39;;;;;;;6.87;6.18;;;3.80;99.90;;;;;;469553;252;27547;-73
2024/04/18 07:08:40;;;;;;;7.22;6.25;;;3.70;99.90;;;;;;469537;252;27403;-72
2024/04/18 07:10:42;;;;;;;8.85;6.70;;;3.70;99.90;;;;;;469544;252;27487;-72
2024/04/18 07:12:43;;;;;;;8.55;7.30;;;3.80;99.90;;;;;;469551;252;27439;-71
2024/04/18 07:14:44;;;;;;;8.82;6.18;;;3.90;99.90;;;;;;469542;252;27535;-72
2024/04/18 07:16:45;;;;;;;7.28;6.25;;;3.90;99.90;;;;;;469546;252;27459;-72
2024/04/18 07:18:47;;;;;;;7.90;6.57;;;4.00;99.90;;;;;;469543;252;27467;-71
2024/04/18 07:20:48;;;;;;;7.87;6.70;;;4.00;99.90;;;;;;469543;252;27993;-72
2024/04/18 07:22:49;;;;;;;9.05;6.97;;;4.10;99.90;;;;;;469536;252;28112;-72
2024/04/18 07:24:50;;;;;;;8.60;6.80;;;4.10;99.90;;;;;;469530;252;27423;-71
2024/04/18 07:26:52;;;;;;;10.80;7.93;;;4.10;99.90;;;;;;469507;252;27454;-72
2024/04/18 07:28:53;;;;;;;12.23;7.47;;;4.00;99.90;;;;;;469494;252;27416;-71
2024/04/18 07:30:54;;;;;;;11.52;8.63;;;4.00;99.90;;;;;;469480;252;27526;-72
2024/04/18 07:32:56;;;;;;;8.98;7.57;;;4.10;99.90;;;;;;469532;252;27463;-73
2024/04/18 07:34:57;;;;;;;11.05;8.07;;;4.10;99.90;;;;;;469550;252;27484;-71
2024/04/18 07:36:58;;;;;;;11.90;7.62;;;4.10;99.90;;;;;;469538;252;27934;-72
2024/04/18 07:38:59;;;;;;;9.65;7.25;;;4.20;99.90;;;;;;469539;252;27427;-71
2024/04/18 07:41:01;;;;;;;13.62;7.47;;;4.50;99.90;;;;;;469533;252;27435;-72
2024/04/18 07:43:02;;;;;;;9.35;7.82;;;4.60;99.90;;;;;;469540;252;27458;-72
2024/04/18 07:45:03;;;;;;;8.50;7.50;;;4.50;99.90;;;;;;469481;253;27422;-71
2024/04/18 07:47:05;;;;;;;10.52;8.55;;;4.60;99.90;;;;;;469523;252;27474;-71
2024/04/18 07:49:06;;;;;;;12.40;8.07;;;4.60;99.90;;;;;;469522;252;27537;-72
2024/04/18 07:51:07;;;;;;;9.85;8.10;;;4.50;99.90;;;;;;469445;253;28022;-72
2024/04/18 07:53:08;;;;;;;13.82;9.98;;;4.50;99.90;;;;;;469389;253;27965;-71
2024/04/18 07:55:09;;;;;;;12.10;8.85;;;4.50;99.90;;;;;;469545;252;27421;-72
2024/04/18 07:57:11;;;;;;;10.50;8.32;;;4.80;99.90;;;;;;469514;253;27454;-71
2024/04/18 07:59:13;;;;;;;11.57;9.05;;;5.10;99.90;;;;;;469563;252;27902;-73
2024/04/18 08:01:13;;;;;;;10.35;8.43;;;5.20;99.90;;;;;;469513;253;27487;-72
2024/04/18 08:03:14;;;;;;;12.18;8.43;;;5.50;99.90;;;;;;469482;253;27981;-71
2024/04/18 08:05:16;;;;;;;12.25;8.20;;;5.90;99.90;;;;;;469540;252;27953;-72
2024/04/18 08:07:17;;;;;;;9.70;8.27;;;6.10;99.90;;;;;;469521;253;27459;-72
2024/04/18 08:09:18;;;;;;;10.70;8.10;;;6.20;99.90;;;;;;469554;252;28123;-73
2024/04/18 08:11:19;;;;;;;9.53;8.10;;;6.30;99.90;;;;;;469543;252;28850;-72
2024/04/18 08:13:21;;;;;;;11.90;7.63;;;6.20;99.90;;;;;;469572;252;27774;-72
2024/04/18 08:15:22;;;;;;;13.73;8.53;;;5.90;99.90;;;;;;469557;252;27927;-70
2024/04/18 08:17:23;;;;;;;10.27;8.60;;;5.90;99.90;;;;;;469517;253;27974;-71
2024/04/18 08:19:24;;;;;;;10.77;8.97;;;6.00;99.90;;;;;;469551;252;27944;-72
2024/04/18 08:21:27;;;;;;;11.60;8.57;;;6.00;99.90;;;;;;469582;252;27808;-72
2024/04/18 08:23:27;;;;;;;10.40;7.40;;;6.20;99.90;;;;;;469547;252;28389;-72
2024/04/18 08:25:28;;;;;;;12.57;8.50;;;6.00;99.90;;;;;;469586;252;28237;-72
2024/04/18 08:27:29;;;;;;;10.60;8.07;;;6.00;99.90;;;;;;469581;252;28278;-71
2024/04/18 08:29:31;;;;;;;11.90;8.47;;;6.00;99.90;;;;;;469583;252;28403;-72
2024/04/18 08:31:36;;;;;;;10.17;7.40;;;6.00;99.90;;;;;;469594;252;27973;-72
2024/04/18 08:33:33;;;;;;;11.40;8.00;;;5.80;99.90;;;;;;469298;253;27937;-72
2024/04/18 08:35:34;;;;;;;11.37;8.50;;;5.80;99.90;;;;;;469576;252;27904;-73
2024/04/18 08:37:36;;;;;;;11.53;7.90;;;5.90;99.90;;;;;;469543;253;27897;-72
2024/04/18 08:39:37;;;;;;;12.70;9.20;;;5.80;99.90;;;;;;469542;253;28071;-72
2024/04/18 08:41:38;;;;;;;12.13;8.63;;;5.70;99.90;;;;;;469561;252;27780;-71
2024/04/18 08:43:39;;;;;;;11.37;8.23;;;5.70;99.90;;;;;;469558;252;27951;-71
2024/04/18 08:45:41;;;;;;;9.03;7.63;;;5.80;99.90;;;;;;469563;252;27823;-73
2024/04/18 08:47:42;;;;;;;10.57;8.07;;;6.20;99.90;;;;;;469553;252;27554;-71
2024/04/18 08:49:43;;;;;;;11.40;8.10;;;6.20;99.90;;;;;;469540;252;28412;-72
2024/04/18 08:51:44;;;;;;;10.43;7.80;;;6.50;99.90;;;;;;469512;252;29218;-71
2024/04/18 08:53:46;;;;;;;8.70;7.50;;;6.30;99.90;;;;;;469470;252;28428;-72
2024/04/18 08:55:48;;;;;;;9.67;7.90;;;6.60;99.90;;;;;;469417;252;28523;-72
2024/04/18 08:57:48;;;;;;;9.93;7.20;;;6.60;99.90;;;;;;469366;253;27913;-71
2024/04/18 08:59:49;;;;;;;12.53;9.00;;;6.40;99.90;;;;;;469508;252;27943;-72
2024/04/18 09:01:51;;;;;;;9.20;6.93;;;6.40;99.90;;;;;;469513;251;27921;-73
2024/04/18 09:03:52;;;;;;;10.27;7.40;;;6.40;99.90;;;;;;469498;252;27854;-72
2024/04/18 09:05:53;;;;;;;10.00;7.50;;;6.30;99.90;;;;;;469506;252;28156;-72
2024/04/18 09:07:54;;;;;;;8.00;7.20;;;6.00;99.90;;;;;;469498;252;27920;-72
2024/04/18 09:09:56;;;;;;;9.83;6.70;;;6.00;99.90;;;;;;469517;252;28042;-71
2024/04/18 09:11:59;;;;;;;9.60;8.10;;;6.30;99.90;;;;;;469557;252;28117;-71
2024/04/18 09:13:58;;;;;;;10.13;6.40;;;6.60;99.90;;;;;;469465;253;27919;-71
2024/04/18 09:15:59;;;;;;;10.43;7.97;;;6.90;99.90;;;;;;469549;252;28030;-72
2024/04/18 09:18:01;;;;;;;9.93;7.80;;;6.90;99.90;;;;;;469524;252;28025;-71
2024/04/18 09:20:03;;;;;;;10.20;7.40;;;6.80;99.90;;;;;;469542;252;28533;-72
2024/04/18 09:22:03;;;;;;;10.83;8.00;;;6.50;99.90;;;;;;469484;252;27968;-72
2024/04/18 09:24:05;;;;;;;9.23;7.20;;;6.50;99.90;;;;;;469545;252;27907;-72
2024/04/18 09:26:06;;;;;;;10.83;7.37;;;6.70;99.90;;;;;;469545;252;27948;-72
2024/04/18 09:28:07;;;;;;;7.87;6.80;;;6.80;99.90;;;;;;469547;252;27913;-72
2024/04/18 09:30:08;;;;;;;8.57;7.03;;;6.90;99.90;;;;;;469574;252;28055;-71
2024/04/18 09:32:11;;;;;;;8.37;6.83;;;7.00;99.90;;;;;;469581;252;27844;-72
2024/04/18 09:34:11;;;;;;;9.77;7.83;;;6.90;99.90;;;;;;469444;253;27913;-71
2024/04/18 09:36:12;;;;;;;10.67;7.07;;;7.30;99.90;;;;;;469547;252;28012;-72
2024/04/18 09:38:13;;;;;;;8.60;7.00;;;7.40;99.90;;;;;;469537;251;27901;-73
2024/04/18 09:40:14;;;;;;;10.47;7.37;;;7.40;99.90;;;;;;469552;252;27882;-71
2024/04/18 09:42:16;;;;;;;8.13;7.20;;;7.30;99.90;;;;;;469557;252;28500;-72
2024/04/18 09:44:17;;;;;;;8.80;6.27;;;7.40;99.90;;;;;;469535;252;28371;-71
2024/04/18 09:46:18;;;;;;;7.67;5.97;;;7.20;99.90;;;;;;469529;252;28251;-71
2024/04/18 09:48:19;;;;;;;9.50;6.30;;;7.20;99.90;;;;;;469550;252;28371;-73
2024/04/18 09:50:21;;;;;;;9.03;6.30;;;7.10;99.90;;;;;;469538;252;28421;-72
2024/04/18 09:52:22;;;;;;;8.70;6.20;;;7.20;99.90;;;;;;469507;252;28463;-72
2024/04/18 09:54:23;;;;;;;6.67;5.87;;;7.50;99.90;;;;;;469529;251;27994;-72
2024/04/18 09:56:25;;;;;;;7.47;6.67;;;7.60;99.90;;;;;;469548;252;27923;-72
2024/04/18 09:58:26;;;;;;;7.13;5.83;;;7.70;99.90;;;;;;469506;253;27941;-72
2024/04/18 10:00:27;;;;;;;9.03;7.20;;;7.50;99.90;;;;;;469549;252;27941;-71
2024/04/18 10:02:29;;;;;;;8.90;6.23;;;7.50;99.90;;;;;;469517;252;27943;-72
2024/04/18 10:04:29;;;;;;;6.87;5.87;;;7.30;99.90;;;;;;469507;252;27902;-72
2024/04/18 10:06:32;;;;;;;7.33;5.77;;;7.10;99.90;;;;;;469562;252;27893;-72
2024/04/18 10:08:32;;;;;;;7.03;5.37;;;7.10;99.90;;;;;;469525;252;28083;-72
2024/04/18 10:10:33;;;;;;;7.80;6.17;;;7.20;99.90;;;;;;469543;252;27781;-71
2024/04/18 10:12:34;;;;;;;7.43;6.03;;;7.30;99.90;;;;;;469538;252;28167;-72
2024/04/18 10:14:36;;;;;;;7.67;6.57;;;7.40;99.90;;;;;;469548;252;27954;-73
2024/04/18 10:16:37;;;;;;;7.43;6.20;;;7.30;99.90;;;;;;469538;252;28501;-72
2024/04/18 10:18:38;;;;;;;9.20;6.90;;;7.50;99.90;;;;;;469544;252;28430;-72
2024/04/18 10:20:39;;;;;;;8.13;6.50;;;7.70;99.90;;;;;;469537;252;28365;-71
2024/04/18 10:22:41;;;;;;;7.77;6.60;;;7.80;99.90;;;;;;469525;252;28544;-72
2024/04/18 10:24:42;;;;;;;8.47;6.33;;;8.00;99.90;;;;;;469545;252;28745;-73
2024/04/18 10:26:43;;;;;;;12.87;7.77;;;8.20;99.90;;;;;;469514;252;28221;-70
2024/04/18 10:28:44;;;;;;;10.17;7.40;;;8.00;99.90;;;;;;469516;252;27838;-72
2024/04/18 10:30:46;;;;;;;11.00;7.10;;;7.80;99.90;;;;;;469507;252;28037;-72
2024/04/18 10:32:48;;;;;;;8.73;6.73;;;7.70;99.90;;;;;;469510;252;27809;-72
2024/04/18 10:34:48;;;;;;;10.40;7.27;;;7.70;99.90;;;;;;469532;252;27650;-73
2024/04/18 10:36:49;;;;;;;7.23;6.00;;;7.50;99.90;;;;;;469526;252;28011;-72
2024/04/18 10:38:51;;;;;;;8.60;6.80;;;7.60;99.90;;;;;;469531;252;27949;-72
2024/04/18 10:40:52;;;;;;;9.37;7.20;;;7.60;99.90;;;;;;469576;252;28042;-74